sensor_id;sensor_type;location;lat;lon;timestamp;P1;durP1;ratioP1;P2;durP2;ratioP2
7263;SDS011;3673;52.480;13.348;2023-05-07T00:02:13;11.98;;;10.35;;
7263;SDS011;3673;52.480;13.348;2023-05-07T00:04:40;16.13;;;11.27;;
7263;SDS011;3673;52.480;13.348;2023-05-07T00:07:07;17.00;;;11.88;;
7263;SDS011;3673;52.480;13.348;2023-05-07T00:09:34;13.55;;;10.20;;
7263;SDS011;3673;52.480;13.348;2023-05-07T00:12:02;15.48;;;10.15;;
7263;SDS011;3673;52.480;13.348;2023-05-07T00:14:31;13.68;;;11.07;;
7263;SDS011;3673;52.480;13.348;2023-05-07T00:17:00;13.40;;;10.38;;
7263;SDS011;3673;52.480;13.348;2023-05-07T00:19:27;15.85;;;10.00;;
7263;SDS011;3673;52.480;13.348;2023-05-07T00:21:54;15.15;;;9.95;;
7263;SDS011;3673;52.480;13.348;2023-05-07T00:24:22;12.93;;;10.07;;
7263;SDS011;3673;52.480;13.348;2023-05-07T00:26:49;14.23;;;10.18;;
7263;SDS011;3673;52.480;13.348;2023-05-07T00:29:17;13.80;;;10.48;;
7263;SDS011;3673;52.480;13.348;2023-05-07T00:31:45;11.38;;;9.80;;
7263;SDS011;3673;52.480;13.348;2023-05-07T00:34:12;14.05;;;10.40;;
7263;SDS011;3673;52.480;13.348;2023-05-07T00:36:39;12.18;;;9.70;;
7263;SDS011;3673;52.480;13.348;2023-05-07T00:39:06;12.15;;;10.02;;
7263;SDS011;3673;52.480;13.348;2023-05-07T00:41:32;10.45;;;9.00;;
7263;SDS011;3673;52.480;13.348;2023-05-07T00:43:59;12.88;;;9.05;;
7263;SDS011;3673;52.480;13.348;2023-05-07T00:46:27;12.90;;;9.68;;
7263;SDS011;3673;52.480;13.348;2023-05-07T00:48:57;12.68;;;9.18;;
7263;SDS011;3673;52.480;13.348;2023-05-07T00:51:25;13.63;;;9.45;;
7263;SDS011;3673;52.480;13.348;2023-05-07T00:53:53;11.18;;;8.98;;
7263;SDS011;3673;52.480;13.348;2023-05-07T00:56:20;13.43;;;9.30;;
7263;SDS011;3673;52.480;13.348;2023-05-07T00:58:47;14.20;;;9.18;;
7263;SDS011;3673;52.480;13.348;2023-05-07T01:01:14;10.80;;;8.75;;
7263;SDS011;3673;52.480;13.348;2023-05-07T01:03:41;10.73;;;9.02;;
7263;SDS011;3673;52.480;13.348;2023-05-07T01:06:10;11.45;;;9.55;;
7263;SDS011;3673;52.480;13.348;2023-05-07T01:08:41;11.52;;;8.98;;
7263;SDS011;3673;52.480;13.348;2023-05-07T01:11:08;12.68;;;9.85;;
7263;SDS011;3673;52.480;13.348;2023-05-07T01:13:37;13.88;;;10.48;;
7263;SDS011;3673;52.480;13.348;2023-05-07T01:16:06;13.02;;;10.05;;
7263;SDS011;3673;52.480;13.348;2023-05-07T01:18:34;13.10;;;10.15;;
7263;SDS011;3673;52.480;13.348;2023-05-07T01:21:01;12.93;;;10.48;;
7263;SDS011;3673;52.480;13.348;2023-05-07T01:23:31;13.38;;;9.93;;
7263;SDS011;3673;52.480;13.348;2023-05-07T01:26:00;11.68;;;9.02;;
7263;SDS011;3673;52.480;13.348;2023-05-07T01:28:26;12.00;;;9.57;;
7263;SDS011;3673;52.480;13.348;2023-05-07T01:30:54;12.20;;;10.10;;
7263;SDS011;3673;52.480;13.348;2023-05-07T01:33:27;11.43;;;9.52;;
7263;SDS011;3673;52.480;13.348;2023-05-07T01:35:58;15.75;;;10.63;;
7263;SDS011;3673;52.480;13.348;2023-05-07T01:38:28;12.20;;;8.93;;
7263;SDS011;3673;52.480;13.348;2023-05-07T01:40:57;12.23;;;9.48;;
7263;SDS011;3673;52.480;13.348;2023-05-07T01:43:24;9.95;;;8.60;;
7263;SDS011;3673;52.480;13.348;2023-05-07T01:45:51;12.43;;;9.50;;
7263;SDS011;3673;52.480;13.348;2023-05-07T01:48:19;12.50;;;9.85;;
7263;SDS011;3673;52.480;13.348;2023-05-07T01:50:47;8.85;;;7.95;;
7263;SDS011;3673;52.480;13.348;2023-05-07T01:53:14;10.95;;;8.38;;
7263;SDS011;3673;52.480;13.348;2023-05-07T01:55:42;13.40;;;9.38;;
7263;SDS011;3673;52.480;13.348;2023-05-07T01:58:10;10.63;;;9.30;;
7263;SDS011;3673;52.480;13.348;2023-05-07T02:00:37;13.68;;;8.98;;
7263;SDS011;3673;52.480;13.348;2023-05-07T02:03:03;11.50;;;8.38;;
7263;SDS011;3673;52.480;13.348;2023-05-07T02:05:30;10.25;;;8.50;;
7263;SDS011;3673;52.480;13.348;2023-05-07T02:07:57;11.90;;;8.57;;
7263;SDS011;3673;52.480;13.348;2023-05-07T02:10:24;11.52;;;9.20;;
7263;SDS011;3673;52.480;13.348;2023-05-07T02:12:52;10.35;;;8.82;;
7263;SDS011;3673;52.480;13.348;2023-05-07T02:15:19;13.43;;;8.95;;
7263;SDS011;3673;52.480;13.348;2023-05-07T02:17:58;9.88;;;7.95;;
7263;SDS011;3673;52.480;13.348;2023-05-07T02:20:27;12.77;;;8.30;;
7263;SDS011;3673;52.480;13.348;2023-05-07T02:22:53;10.50;;;8.80;;
7263;SDS011;3673;52.480;13.348;2023-05-07T02:25:20;10.98;;;8.45;;
7263;SDS011;3673;52.480;13.348;2023-05-07T02:27:47;11.45;;;8.85;;
7263;SDS011;3673;52.480;13.348;2023-05-07T02:30:16;12.82;;;9.70;;
7263;SDS011;3673;52.480;13.348;2023-05-07T02:32:43;11.57;;;9.13;;
7263;SDS011;3673;52.480;13.348;2023-05-07T02:35:10;11.27;;;8.63;;
7263;SDS011;3673;52.480;13.348;2023-05-07T02:37:36;14.95;;;9.63;;
7263;SDS011;3673;52.480;13.348;2023-05-07T02:40:03;13.82;;;9.23;;
7263;SDS011;3673;52.480;13.348;2023-05-07T02:42:32;11.02;;;8.70;;
7263;SDS011;3673;52.480;13.348;2023-05-07T02:44:59;14.75;;;9.88;;
7263;SDS011;3673;52.480;13.348;2023-05-07T02:47:27;12.48;;;9.82;;
7263;SDS011;3673;52.480;13.348;2023-05-07T02:49:54;12.60;;;9.40;;
7263;SDS011;3673;52.480;13.348;2023-05-07T02:52:21;11.45;;;9.52;;
7263;SDS011;3673;52.480;13.348;2023-05-07T02:54:48;11.20;;;8.95;;
7263;SDS011;3673;52.480;13.348;2023-05-07T02:57:15;10.60;;;9.18;;
7263;SDS011;3673;52.480;13.348;2023-05-07T02:59:42;13.93;;;9.40;;
7263;SDS011;3673;52.480;13.348;2023-05-07T03:02:09;12.63;;;9.05;;
7263;SDS011;3673;52.480;13.348;2023-05-07T03:04:37;12.32;;;9.23;;
7263;SDS011;3673;52.480;13.348;2023-05-07T03:07:05;11.50;;;9.15;;
7263;SDS011;3673;52.480;13.348;2023-05-07T03:09:32;11.93;;;9.25;;
7263;SDS011;3673;52.480;13.348;2023-05-07T03:11:58;11.75;;;8.95;;
7263;SDS011;3673;52.480;13.348;2023-05-07T03:14:26;12.80;;;8.55;;
7263;SDS011;3673;52.480;13.348;2023-05-07T03:16:53;13.20;;;9.63;;
7263;SDS011;3673;52.480;13.348;2023-05-07T03:19:20;12.00;;;9.23;;
7263;SDS011;3673;52.480;13.348;2023-05-07T03:21:48;11.52;;;8.88;;
7263;SDS011;3673;52.480;13.348;2023-05-07T03:24:15;10.73;;;8.27;;
7263;SDS011;3673;52.480;13.348;2023-05-07T03:26:42;11.32;;;8.30;;
7263;SDS011;3673;52.480;13.348;2023-05-07T03:29:08;11.05;;;7.85;;
7263;SDS011;3673;52.480;13.348;2023-05-07T03:31:35;10.73;;;8.25;;
7263;SDS011;3673;52.480;13.348;2023-05-07T03:34:02;10.63;;;7.70;;
7263;SDS011;3673;52.480;13.348;2023-05-07T03:36:29;9.15;;;7.32;;
7263;SDS011;3673;52.480;13.348;2023-05-07T03:38:57;9.43;;;8.20;;
7263;SDS011;3673;52.480;13.348;2023-05-07T03:41:24;11.40;;;8.55;;
7263;SDS011;3673;52.480;13.348;2023-05-07T03:43:51;11.82;;;8.38;;
7263;SDS011;3673;52.480;13.348;2023-05-07T03:46:18;10.80;;;8.60;;
7263;SDS011;3673;52.480;13.348;2023-05-07T03:48:45;10.10;;;7.88;;
7263;SDS011;3673;52.480;13.348;2023-05-07T03:51:11;10.07;;;8.20;;
7263;SDS011;3673;52.480;13.348;2023-05-07T03:53:38;9.50;;;8.50;;
7263;SDS011;3673;52.480;13.348;2023-05-07T03:56:06;11.50;;;8.82;;
7263;SDS011;3673;52.480;13.348;2023-05-07T03:58:33;10.38;;;8.38;;
7263;SDS011;3673;52.480;13.348;2023-05-07T04:01:00;13.65;;;9.70;;
7263;SDS011;3673;52.480;13.348;2023-05-07T04:03:27;10.05;;;8.45;;
7263;SDS011;3673;52.480;13.348;2023-05-07T04:05:55;10.57;;;8.45;;
7263;SDS011;3673;52.480;13.348;2023-05-07T04:08:22;12.27;;;8.93;;
7263;SDS011;3673;52.480;13.348;2023-05-07T04:10:52;14.07;;;8.77;;
7263;SDS011;3673;52.480;13.348;2023-05-07T04:13:22;10.48;;;8.35;;
7263;SDS011;3673;52.480;13.348;2023-05-07T04:15:49;9.98;;;8.50;;
7263;SDS011;3673;52.480;13.348;2023-05-07T04:18:16;11.10;;;9.50;;
7263;SDS011;3673;52.480;13.348;2023-05-07T04:20:43;15.93;;;8.38;;
7263;SDS011;3673;52.480;13.348;2023-05-07T04:23:10;9.35;;;8.38;;
7263;SDS011;3673;52.480;13.348;2023-05-07T04:25:36;8.93;;;8.00;;
7263;SDS011;3673;52.480;13.348;2023-05-07T04:28:03;8.55;;;7.63;;
7263;SDS011;3673;52.480;13.348;2023-05-07T04:30:32;8.43;;;7.53;;
7263;SDS011;3673;52.480;13.348;2023-05-07T04:32:59;10.85;;;7.90;;
7263;SDS011;3673;52.480;13.348;2023-05-07T04:35:26;9.55;;;8.00;;
7263;SDS011;3673;52.480;13.348;2023-05-07T04:37:52;10.00;;;8.15;;
7263;SDS011;3673;52.480;13.348;2023-05-07T04:40:20;8.52;;;7.63;;
7263;SDS011;3673;52.480;13.348;2023-05-07T04:42:47;10.57;;;7.43;;
7263;SDS011;3673;52.480;13.348;2023-05-07T04:45:14;8.23;;;7.43;;
7263;SDS011;3673;52.480;13.348;2023-05-07T04:47:42;13.07;;;7.82;;
7263;SDS011;3673;52.480;13.348;2023-05-07T04:50:09;8.40;;;7.22;;
7263;SDS011;3673;52.480;13.348;2023-05-07T04:52:36;8.85;;;6.70;;
7263;SDS011;3673;52.480;13.348;2023-05-07T04:55:03;17.52;;;7.68;;
7263;SDS011;3673;52.480;13.348;2023-05-07T04:57:31;6.85;;;6.10;;
7263;SDS011;3673;52.480;13.348;2023-05-07T04:59:58;9.50;;;7.50;;
7263;SDS011;3673;52.480;13.348;2023-05-07T05:02:25;10.50;;;7.32;;
7263;SDS011;3673;52.480;13.348;2023-05-07T05:04:53;9.52;;;6.80;;
7263;SDS011;3673;52.480;13.348;2023-05-07T05:07:20;11.68;;;7.85;;
7263;SDS011;3673;52.480;13.348;2023-05-07T05:09:47;9.35;;;6.50;;
7263;SDS011;3673;52.480;13.348;2023-05-07T05:12:13;8.52;;;6.78;;
7263;SDS011;3673;52.480;13.348;2023-05-07T05:14:40;10.35;;;6.28;;
7263;SDS011;3673;52.480;13.348;2023-05-07T05:17:07;8.02;;;6.47;;
7263;SDS011;3673;52.480;13.348;2023-05-07T05:19:34;9.55;;;6.05;;
7263;SDS011;3673;52.480;13.348;2023-05-07T05:22:02;8.50;;;5.72;;
7263;SDS011;3673;52.480;13.348;2023-05-07T05:24:29;9.13;;;6.63;;
7263;SDS011;3673;52.480;13.348;2023-05-07T05:26:56;9.43;;;6.60;;
7263;SDS011;3673;52.480;13.348;2023-05-07T05:29:24;8.13;;;6.57;;
7263;SDS011;3673;52.480;13.348;2023-05-07T05:31:51;6.43;;;5.40;;
7263;SDS011;3673;52.480;13.348;2023-05-07T05:34:18;8.60;;;5.75;;
7263;SDS011;3673;52.480;13.348;2023-05-07T05:36:46;10.15;;;6.68;;
7263;SDS011;3673;52.480;13.348;2023-05-07T05:39:15;7.85;;;6.05;;
7263;SDS011;3673;52.480;13.348;2023-05-07T05:41:41;7.00;;;5.93;;
7263;SDS011;3673;52.480;13.348;2023-05-07T05:44:08;7.88;;;5.55;;
7263;SDS011;3673;52.480;13.348;2023-05-07T05:46:35;7.15;;;6.10;;
7263;SDS011;3673;52.480;13.348;2023-05-07T05:49:02;8.85;;;5.95;;
7263;SDS011;3673;52.480;13.348;2023-05-07T05:51:29;8.73;;;6.53;;
7263;SDS011;3673;52.480;13.348;2023-05-07T05:53:56;8.07;;;6.82;;
7263;SDS011;3673;52.480;13.348;2023-05-07T05:56:24;8.25;;;6.63;;
7263;SDS011;3673;52.480;13.348;2023-05-07T05:58:51;6.60;;;5.88;;
7263;SDS011;3673;52.480;13.348;2023-05-07T06:01:18;6.80;;;6.07;;
7263;SDS011;3673;52.480;13.348;2023-05-07T06:03:47;8.02;;;6.30;;
7263;SDS011;3673;52.480;13.348;2023-05-07T06:06:13;10.60;;;6.53;;
7263;SDS011;3673;52.480;13.348;2023-05-07T06:08:40;7.18;;;6.28;;
7263;SDS011;3673;52.480;13.348;2023-05-07T06:11:07;8.45;;;6.18;;
7263;SDS011;3673;52.480;13.348;2023-05-07T06:13:36;8.57;;;6.13;;
7263;SDS011;3673;52.480;13.348;2023-05-07T06:16:03;8.20;;;6.55;;
7263;SDS011;3673;52.480;13.348;2023-05-07T06:18:31;8.13;;;6.38;;
7263;SDS011;3673;52.480;13.348;2023-05-07T06:20:57;14.98;;;6.88;;
7263;SDS011;3673;52.480;13.348;2023-05-07T06:23:24;9.10;;;6.63;;
7263;SDS011;3673;52.480;13.348;2023-05-07T06:25:51;9.00;;;5.85;;
7263;SDS011;3673;52.480;13.348;2023-05-07T06:28:18;7.55;;;6.40;;
7263;SDS011;3673;52.480;13.348;2023-05-07T06:30:46;7.70;;;5.63;;
7263;SDS011;3673;52.480;13.348;2023-05-07T06:33:14;8.32;;;6.05;;
7263;SDS011;3673;52.480;13.348;2023-05-07T06:35:41;8.07;;;6.45;;
7263;SDS011;3673;52.480;13.348;2023-05-07T06:38:08;9.07;;;6.88;;
7263;SDS011;3673;52.480;13.348;2023-05-07T06:40:36;7.53;;;6.78;;
7263;SDS011;3673;52.480;13.348;2023-05-07T06:43:02;8.85;;;6.80;;
7263;SDS011;3673;52.480;13.348;2023-05-07T06:45:30;6.60;;;5.93;;
7263;SDS011;3673;52.480;13.348;2023-05-07T06:47:58;7.93;;;6.35;;
7263;SDS011;3673;52.480;13.348;2023-05-07T06:50:24;9.57;;;6.15;;
7263;SDS011;3673;52.480;13.348;2023-05-07T06:52:51;9.05;;;6.38;;
7263;SDS011;3673;52.480;13.348;2023-05-07T06:55:18;11.38;;;6.63;;
7263;SDS011;3673;52.480;13.348;2023-05-07T06:57:45;7.10;;;5.68;;
7263;SDS011;3673;52.480;13.348;2023-05-07T07:00:12;8.25;;;5.78;;
7263;SDS011;3673;52.480;13.348;2023-05-07T07:02:40;6.82;;;5.60;;
7263;SDS011;3673;52.480;13.348;2023-05-07T07:05:09;8.02;;;5.57;;
7263;SDS011;3673;52.480;13.348;2023-05-07T07:07:35;7.32;;;5.95;;
7263;SDS011;3673;52.480;13.348;2023-05-07T07:10:02;8.45;;;5.30;;
7263;SDS011;3673;52.480;13.348;2023-05-07T07:12:30;7.88;;;5.45;;
7263;SDS011;3673;52.480;13.348;2023-05-07T07:14:57;7.45;;;5.72;;
7263;SDS011;3673;52.480;13.348;2023-05-07T07:17:24;6.78;;;5.93;;
7263;SDS011;3673;52.480;13.348;2023-05-07T07:19:51;6.25;;;5.50;;
7263;SDS011;3673;52.480;13.348;2023-05-07T07:22:19;6.80;;;5.35;;
7263;SDS011;3673;52.480;13.348;2023-05-07T07:24:46;7.15;;;4.70;;
7263;SDS011;3673;52.480;13.348;2023-05-07T07:27:13;5.82;;;4.68;;
7263;SDS011;3673;52.480;13.348;2023-05-07T07:29:39;7.05;;;4.43;;
7263;SDS011;3673;52.480;13.348;2023-05-07T07:32:06;6.88;;;5.03;;
7263;SDS011;3673;52.480;13.348;2023-05-07T07:34:34;9.02;;;5.15;;
7263;SDS011;3673;52.480;13.348;2023-05-07T07:37:01;4.78;;;3.85;;
7263;SDS011;3673;52.480;13.348;2023-05-07T07:39:31;5.32;;;4.25;;
7263;SDS011;3673;52.480;13.348;2023-05-07T07:41:58;4.85;;;3.75;;
7263;SDS011;3673;52.480;13.348;2023-05-07T07:44:25;5.53;;;4.43;;
7263;SDS011;3673;52.480;13.348;2023-05-07T07:46:54;5.65;;;4.10;;
7263;SDS011;3673;52.480;13.348;2023-05-07T07:49:21;6.75;;;4.55;;
7263;SDS011;3673;52.480;13.348;2023-05-07T07:51:47;4.65;;;4.00;;
7263;SDS011;3673;52.480;13.348;2023-05-07T07:54:14;4.70;;;4.07;;
7263;SDS011;3673;52.480;13.348;2023-05-07T07:56:42;4.95;;;4.20;;
7263;SDS011;3673;52.480;13.348;2023-05-07T07:59:09;6.78;;;4.40;;
7263;SDS011;3673;52.480;13.348;2023-05-07T08:01:36;4.40;;;4.00;;
7263;SDS011;3673;52.480;13.348;2023-05-07T08:04:03;6.45;;;4.95;;
7263;SDS011;3673;52.480;13.348;2023-05-07T08:06:30;4.65;;;4.07;;
7263;SDS011;3673;52.480;13.348;2023-05-07T08:08:57;4.15;;;3.53;;
7263;SDS011;3673;52.480;13.348;2023-05-07T08:11:24;5.30;;;3.85;;
7263;SDS011;3673;52.480;13.348;2023-05-07T08:13:53;5.30;;;4.18;;
7263;SDS011;3673;52.480;13.348;2023-05-07T08:16:20;5.25;;;4.30;;
7263;SDS011;3673;52.480;13.348;2023-05-07T08:18:47;4.57;;;3.72;;
7263;SDS011;3673;52.480;13.348;2023-05-07T08:21:13;5.20;;;4.03;;
7263;SDS011;3673;52.480;13.348;2023-05-07T08:23:40;4.63;;;4.05;;
7263;SDS011;3673;52.480;13.348;2023-05-07T08:26:07;5.00;;;3.25;;
7263;SDS011;3673;52.480;13.348;2023-05-07T08:28:35;7.20;;;3.85;;
7263;SDS011;3673;52.480;13.348;2023-05-07T08:31:03;5.25;;;3.53;;
7263;SDS011;3673;52.480;13.348;2023-05-07T08:33:30;5.75;;;4.70;;
7263;SDS011;3673;52.480;13.348;2023-05-07T08:35:57;4.85;;;3.65;;
7263;SDS011;3673;52.480;13.348;2023-05-07T08:38:23;6.50;;;4.45;;
7263;SDS011;3673;52.480;13.348;2023-05-07T08:40:50;3.40;;;3.00;;
7263;SDS011;3673;52.480;13.348;2023-05-07T08:43:18;6.63;;;4.70;;
7263;SDS011;3673;52.480;13.348;2023-05-07T08:45:47;6.45;;;4.45;;
7263;SDS011;3673;52.480;13.348;2023-05-07T08:48:19;4.32;;;3.28;;
7263;SDS011;3673;52.480;13.348;2023-05-07T08:50:51;5.00;;;3.15;;
7263;SDS011;3673;52.480;13.348;2023-05-07T08:53:18;7.78;;;3.42;;
7263;SDS011;3673;52.480;13.348;2023-05-07T08:55:47;3.97;;;3.00;;
7263;SDS011;3673;52.480;13.348;2023-05-07T08:58:14;4.18;;;3.05;;
7263;SDS011;3673;52.480;13.348;2023-05-07T09:00:41;4.03;;;3.08;;
7263;SDS011;3673;52.480;13.348;2023-05-07T09:03:08;3.65;;;2.63;;
7263;SDS011;3673;52.480;13.348;2023-05-07T09:05:38;4.97;;;3.00;;
7263;SDS011;3673;52.480;13.348;2023-05-07T09:08:08;3.88;;;3.20;;
7263;SDS011;3673;52.480;13.348;2023-05-07T09:10:35;4.57;;;3.30;;
7263;SDS011;3673;52.480;13.348;2023-05-07T09:13:02;4.97;;;3.15;;
7263;SDS011;3673;52.480;13.348;2023-05-07T09:15:29;5.22;;;3.25;;
7263;SDS011;3673;52.480;13.348;2023-05-07T09:17:59;5.43;;;2.80;;
7263;SDS011;3673;52.480;13.348;2023-05-07T09:20:27;2.40;;;2.20;;
7263;SDS011;3673;52.480;13.348;2023-05-07T09:22:57;4.32;;;2.70;;
7263;SDS011;3673;52.480;13.348;2023-05-07T09:25:27;4.30;;;3.10;;
7263;SDS011;3673;52.480;13.348;2023-05-07T09:27:55;5.18;;;2.97;;
7263;SDS011;3673;52.480;13.348;2023-05-07T09:30:23;5.75;;;2.92;;
7263;SDS011;3673;52.480;13.348;2023-05-07T09:32:55;3.05;;;2.72;;
7263;SDS011;3673;52.480;13.348;2023-05-07T09:35:22;4.10;;;2.50;;
7263;SDS011;3673;52.480;13.348;2023-05-07T09:37:52;4.05;;;2.58;;
7263;SDS011;3673;52.480;13.348;2023-05-07T09:40:21;3.38;;;2.50;;
7263;SDS011;3673;52.480;13.348;2023-05-07T09:42:50;4.85;;;3.30;;
7263;SDS011;3673;52.480;13.348;2023-05-07T09:45:21;7.78;;;2.85;;
7263;SDS011;3673;52.480;13.348;2023-05-07T09:47:49;5.75;;;3.63;;
7263;SDS011;3673;52.480;13.348;2023-05-07T09:50:22;4.70;;;3.53;;
7263;SDS011;3673;52.480;13.348;2023-05-07T09:52:53;5.75;;;2.95;;
7263;SDS011;3673;52.480;13.348;2023-05-07T09:55:22;3.72;;;3.10;;
7263;SDS011;3673;52.480;13.348;2023-05-07T09:57:50;3.38;;;3.05;;
7263;SDS011;3673;52.480;13.348;2023-05-07T10:00:19;6.30;;;3.30;;
7263;SDS011;3673;52.480;13.348;2023-05-07T10:02:47;4.00;;;2.90;;
7263;SDS011;3673;52.480;13.348;2023-05-07T10:05:17;4.95;;;3.13;;
7263;SDS011;3673;52.480;13.348;2023-05-07T10:07:45;4.07;;;2.78;;
7263;SDS011;3673;52.480;13.348;2023-05-07T10:10:13;3.67;;;2.70;;
7263;SDS011;3673;52.480;13.348;2023-05-07T10:12:42;3.97;;;3.58;;
7263;SDS011;3673;52.480;13.348;2023-05-07T10:15:10;3.92;;;3.00;;
7263;SDS011;3673;52.480;13.348;2023-05-07T10:17:39;5.45;;;2.38;;
7263;SDS011;3673;52.480;13.348;2023-05-07T10:20:07;5.68;;;2.47;;
7263;SDS011;3673;52.480;13.348;2023-05-07T10:22:37;2.80;;;2.05;;
7263;SDS011;3673;52.480;13.348;2023-05-07T10:25:05;5.68;;;2.60;;
7263;SDS011;3673;52.480;13.348;2023-05-07T10:27:40;2.90;;;1.85;;
7263;SDS011;3673;52.480;13.348;2023-05-07T10:30:12;8.10;;;3.10;;
7263;SDS011;3673;52.480;13.348;2023-05-07T10:32:56;4.68;;;2.25;;
7263;SDS011;3673;52.480;13.348;2023-05-07T10:35:31;2.83;;;2.13;;
7263;SDS011;3673;52.480;13.348;2023-05-07T10:38:05;2.08;;;1.77;;
7263;SDS011;3673;52.480;13.348;2023-05-07T10:40:33;3.42;;;2.30;;
7263;SDS011;3673;52.480;13.348;2023-05-07T10:43:02;2.83;;;1.95;;
7263;SDS011;3673;52.480;13.348;2023-05-07T10:45:31;2.53;;;1.92;;
7263;SDS011;3673;52.480;13.348;2023-05-07T10:48:08;2.25;;;1.73;;
7263;SDS011;3673;52.480;13.348;2023-05-07T10:50:37;3.83;;;2.40;;
7263;SDS011;3673;52.480;13.348;2023-05-07T10:53:21;3.00;;;2.20;;
7263;SDS011;3673;52.480;13.348;2023-05-07T10:58:56;2.70;;;1.80;;
7263;SDS011;3673;52.480;13.348;2023-05-07T11:01:57;5.00;;;2.00;;
7263;SDS011;3673;52.480;13.348;2023-05-07T11:04:27;3.22;;;1.75;;
7263;SDS011;3673;52.480;13.348;2023-05-07T11:07:21;4.22;;;1.77;;
7263;SDS011;3673;52.480;13.348;2023-05-07T11:09:56;5.38;;;2.13;;
7263;SDS011;3673;52.480;13.348;2023-05-07T11:18:02;2.63;;;1.80;;
7263;SDS011;3673;52.480;13.348;2023-05-07T11:20:46;2.90;;;1.90;;
7263;SDS011;3673;52.480;13.348;2023-05-07T11:26:46;4.22;;;2.92;;
7263;SDS011;3673;52.480;13.348;2023-05-07T11:29:15;4.97;;;3.78;;
7263;SDS011;3673;52.480;13.348;2023-05-07T11:31:46;2.58;;;2.03;;
7263;SDS011;3673;52.480;13.348;2023-05-07T11:34:16;4.47;;;2.53;;
7263;SDS011;3673;52.480;13.348;2023-05-07T11:36:47;5.15;;;2.15;;
7263;SDS011;3673;52.480;13.348;2023-05-07T11:39:29;1.70;;;1.60;;
7263;SDS011;3673;52.480;13.348;2023-05-07T11:41:58;4.38;;;2.03;;
7263;SDS011;3673;52.480;13.348;2023-05-07T11:44:38;2.55;;;1.90;;
7263;SDS011;3673;52.480;13.348;2023-05-07T11:47:12;2.03;;;1.55;;
7263;SDS011;3673;52.480;13.348;2023-05-07T11:49:45;2.28;;;2.08;;
7263;SDS011;3673;52.480;13.348;2023-05-07T11:52:13;3.67;;;2.55;;
7263;SDS011;3673;52.480;13.348;2023-05-07T11:54:41;2.95;;;2.08;;
7263;SDS011;3673;52.480;13.348;2023-05-07T11:57:15;5.57;;;2.22;;
7263;SDS011;3673;52.480;13.348;2023-05-07T11:59:42;4.60;;;2.15;;
7263;SDS011;3673;52.480;13.348;2023-05-07T12:02:11;2.33;;;1.98;;
7263;SDS011;3673;52.480;13.348;2023-05-07T12:04:40;4.20;;;2.30;;
7263;SDS011;3673;52.480;13.348;2023-05-07T12:07:11;3.53;;;2.20;;
7263;SDS011;3673;52.480;13.348;2023-05-07T12:09:38;3.50;;;2.38;;
7263;SDS011;3673;52.480;13.348;2023-05-07T12:12:05;2.13;;;1.83;;
7263;SDS011;3673;52.480;13.348;2023-05-07T12:14:33;3.33;;;2.17;;
7263;SDS011;3673;52.480;13.348;2023-05-07T12:17:04;1.50;;;1.40;;
7263;SDS011;3673;52.480;13.348;2023-05-07T12:19:33;2.25;;;1.70;;
7263;SDS011;3673;52.480;13.348;2023-05-07T12:22:01;2.13;;;1.92;;
7263;SDS011;3673;52.480;13.348;2023-05-07T12:24:29;4.82;;;3.08;;
7263;SDS011;3673;52.480;13.348;2023-05-07T12:27:12;4.28;;;2.63;;
7263;SDS011;3673;52.480;13.348;2023-05-07T12:29:39;3.05;;;2.28;;
7263;SDS011;3673;52.480;13.348;2023-05-07T12:32:12;2.05;;;1.50;;
7263;SDS011;3673;52.480;13.348;2023-05-07T12:34:42;2.28;;;1.73;;
7263;SDS011;3673;52.480;13.348;2023-05-07T12:37:09;1.75;;;1.65;;
7263;SDS011;3673;52.480;13.348;2023-05-07T12:39:37;6.32;;;2.13;;
7263;SDS011;3673;52.480;13.348;2023-05-07T12:42:04;2.45;;;1.70;;
7263;SDS011;3673;52.480;13.348;2023-05-07T12:44:32;3.90;;;2.60;;
7263;SDS011;3673;52.480;13.348;2023-05-07T12:47:01;2.35;;;1.88;;
7263;SDS011;3673;52.480;13.348;2023-05-07T12:49:28;2.42;;;1.67;;
7263;SDS011;3673;52.480;13.348;2023-05-07T12:51:57;2.42;;;1.80;;
7263;SDS011;3673;52.480;13.348;2023-05-07T12:54:28;5.15;;;1.90;;
7263;SDS011;3673;52.480;13.348;2023-05-07T12:57:02;2.28;;;1.80;;
7263;SDS011;3673;52.480;13.348;2023-05-07T12:59:31;2.08;;;1.80;;
7263;SDS011;3673;52.480;13.348;2023-05-07T13:01:59;2.03;;;1.85;;
7263;SDS011;3673;52.480;13.348;2023-05-07T13:04:26;4.43;;;1.83;;
7263;SDS011;3673;52.480;13.348;2023-05-07T13:06:53;3.67;;;1.75;;
7263;SDS011;3673;52.480;13.348;2023-05-07T13:09:21;5.03;;;1.98;;
7263;SDS011;3673;52.480;13.348;2023-05-07T13:11:48;6.32;;;2.40;;
7263;SDS011;3673;52.480;13.348;2023-05-07T13:14:15;2.17;;;1.95;;
7263;SDS011;3673;52.480;13.348;2023-05-07T13:16:42;2.25;;;1.70;;
7263;SDS011;3673;52.480;13.348;2023-05-07T13:19:09;2.92;;;1.77;;
7263;SDS011;3673;52.480;13.348;2023-05-07T13:21:36;2.63;;;1.67;;
7263;SDS011;3673;52.480;13.348;2023-05-07T13:24:02;4.38;;;2.00;;
7263;SDS011;3673;52.480;13.348;2023-05-07T13:26:31;1.67;;;1.42;;
7263;SDS011;3673;52.480;13.348;2023-05-07T13:28:58;1.20;;;1.10;;
7263;SDS011;3673;52.480;13.348;2023-05-07T13:31:24;3.58;;;1.90;;
7263;SDS011;3673;52.480;13.348;2023-05-07T13:33:51;2.50;;;1.83;;
7263;SDS011;3673;52.480;13.348;2023-05-07T13:36:18;3.00;;;2.30;;
7263;SDS011;3673;52.480;13.348;2023-05-07T13:38:45;2.65;;;1.80;;
7263;SDS011;3673;52.480;13.348;2023-05-07T13:41:12;3.85;;;1.60;;
7263;SDS011;3673;52.480;13.348;2023-05-07T13:43:41;2.20;;;1.42;;
7263;SDS011;3673;52.480;13.348;2023-05-07T13:46:07;1.67;;;1.40;;
7263;SDS011;3673;52.480;13.348;2023-05-07T13:48:34;2.05;;;1.30;;
7263;SDS011;3673;52.480;13.348;2023-05-07T13:51:01;1.70;;;1.50;;
7263;SDS011;3673;52.480;13.348;2023-05-07T13:53:28;1.90;;;1.60;;
7263;SDS011;3673;52.480;13.348;2023-05-07T13:55:55;2.42;;;1.52;;
7263;SDS011;3673;52.480;13.348;2023-05-07T13:58:21;3.00;;;1.55;;
7263;SDS011;3673;52.480;13.348;2023-05-07T14:00:49;1.88;;;1.55;;
7263;SDS011;3673;52.480;13.348;2023-05-07T14:03:16;4.45;;;1.75;;
7263;SDS011;3673;52.480;13.348;2023-05-07T14:05:44;2.15;;;1.90;;
7263;SDS011;3673;52.480;13.348;2023-05-07T14:08:11;2.55;;;1.83;;
7263;SDS011;3673;52.480;13.348;2023-05-07T14:10:38;3.35;;;2.47;;
7263;SDS011;3673;52.480;13.348;2023-05-07T14:13:05;3.00;;;1.30;;
7263;SDS011;3673;52.480;13.348;2023-05-07T14:15:32;2.38;;;1.65;;
7263;SDS011;3673;52.480;13.348;2023-05-07T14:18:00;2.90;;;2.38;;
7263;SDS011;3673;52.480;13.348;2023-05-07T14:20:27;2.28;;;1.63;;
7263;SDS011;3673;52.480;13.348;2023-05-07T14:22:55;1.40;;;1.30;;
7263;SDS011;3673;52.480;13.348;2023-05-07T14:25:22;1.70;;;1.50;;
7263;SDS011;3673;52.480;13.348;2023-05-07T14:27:52;2.17;;;1.83;;
7263;SDS011;3673;52.480;13.348;2023-05-07T14:30:18;2.10;;;1.70;;
7263;SDS011;3673;52.480;13.348;2023-05-07T14:32:47;1.98;;;1.77;;
7263;SDS011;3673;52.480;13.348;2023-05-07T14:35:16;1.35;;;1.15;;
7263;SDS011;3673;52.480;13.348;2023-05-07T14:37:43;4.43;;;1.30;;
7263;SDS011;3673;52.480;13.348;2023-05-07T14:40:11;2.67;;;1.52;;
7263;SDS011;3673;52.480;13.348;2023-05-07T14:42:39;3.10;;;1.23;;
7263;SDS011;3673;52.480;13.348;2023-05-07T14:45:06;2.58;;;1.40;;
7263;SDS011;3673;52.480;13.348;2023-05-07T14:47:35;3.45;;;1.58;;
7263;SDS011;3673;52.480;13.348;2023-05-07T14:50:02;2.15;;;1.50;;
7263;SDS011;3673;52.480;13.348;2023-05-07T14:52:30;1.88;;;1.48;;
7263;SDS011;3673;52.480;13.348;2023-05-07T14:54:57;5.20;;;1.80;;
7263;SDS011;3673;52.480;13.348;2023-05-07T14:57:24;3.80;;;1.40;;
7263;SDS011;3673;52.480;13.348;2023-05-07T14:59:51;2.42;;;1.60;;
7263;SDS011;3673;52.480;13.348;2023-05-07T15:02:18;1.88;;;1.65;;
7263;SDS011;3673;52.480;13.348;2023-05-07T15:04:45;1.90;;;1.42;;
7263;SDS011;3673;52.480;13.348;2023-05-07T15:07:12;1.90;;;1.45;;
7263;SDS011;3673;52.480;13.348;2023-05-07T15:09:41;2.03;;;1.55;;
7263;SDS011;3673;52.480;13.348;2023-05-07T15:12:08;4.65;;;1.65;;
7263;SDS011;3673;52.480;13.348;2023-05-07T15:14:36;2.00;;;1.77;;